This is the latest recevied weather packets stored in our database for station/object KK7ISX. If no packets are shown the sender has not sent any weather packets the latest 10 day(s).
| Time | Temp. | Humidity | Pressure | Rain* | Wind** | Luminosity | Snow |
|---|---|---|---|---|---|---|---|
| 1778013475 | 23.33° C | 35% | 1009.7 hPa | 0 mm | - | 711 W/m² | - |
| 1778013172 | 22.78° C | 36% | 1009.8 hPa | 0 mm | - | 715 W/m² | - |
| 1778012868 | 22.78° C | 36% | 1009.6 hPa | 0 mm | - | 723 W/m² | - |
| 1778012564 | 22.78° C | 35% | 1009.9 hPa | 0 mm | - | 726 W/m² | - |
| 1778012261 | 22.22° C | 37% | 1010 hPa | 0 mm | - | 730 W/m² | - |
| 1778011959 | 22.78° C | 37% | 1009.9 hPa | 0 mm | - | 736 W/m² | - |
| 1778011657 | 22.78° C | 37% | 1010 hPa | 0 mm | - | 738 W/m² | - |
| 1778011354 | 22.78° C | 35% | 1009.8 hPa | 0 mm | - | 742 W/m² | - |
| 1778011049 | 22.78° C | 38% | 1010.2 hPa | 0 mm | - | 742 W/m² | - |
| 1778010747 | 22.22° C | 38% | 1010.3 hPa | 0 mm | - | 750 W/m² | - |
| 1778009836 | 21.67° C | 37% | 1010.3 hPa | 0 mm | - | 758 W/m² | - |
| 1778009534 | 21.67° C | 36% | 1010.3 hPa | 0 mm | - | 761 W/m² | - |
| 1778009232 | 22.22° C | 37% | 1010.2 hPa | 0 mm | - | 761 W/m² | - |
| 1778008929 | 22.22° C | 36% | 1010.6 hPa | 0 mm | - | 764 W/m² | - |
| 1778008628 | 21.67° C | 38% | 1010.3 hPa | 0 mm | - | 765 W/m² | - |
| 1778008326 | 21.11° C | 38% | 1010.7 hPa | 0 mm | - | 766 W/m² | - |
| 1778005296 | 21.11° C | 39% | 1010.9 hPa | 0 mm | - | 752 W/m² | - |
| 1778004992 | 21.11° C | 38% | 1011 hPa | 0 mm | - | 747 W/m² | - |
| 1778002565 | 20° C | 40% | 1011 hPa | 0 mm | - | 690 W/m² | - |
| 1778002262 | 20.56° C | 40% | 1010.9 hPa | 0 mm | - | 680 W/m² | - |
| 1778001960 | 20° C | 39% | 1011 hPa | 0 mm | - | 671 W/m² | - |
| 1778001656 | 21.11° C | 38% | 1011 hPa | 0 mm | - | 659 W/m² | - |
| 1778001351 | 20.56° C | 40% | 1011.1 hPa | 0 mm | - | 648 W/m² | - |
| 1777999226 | 18.33° C | 41% | 1010.7 hPa | 0 mm | - | 556 W/m² | - |
| 1777998925 | 19.44° C | 42% | 1010.8 hPa | 0 mm | - | 542 W/m² | - |
* Rain latest hour (hover to see other rain measurements)
** Current wind speed in m/s (hover to see current wind gust speed)